Time;durP1;ratioP1;P1;durP2;ratioP2;P2;SDS_P1;SDS_P2;PMS_P1;PMS_P2;Temp;Humidity;BMP_temperature;BMP_pressure;BME280_temperature;BME280_humidity;BME280_pressure;Samples;Min_cycle;Max_cycle;Signal;HPM_P1;HPM_P2
2023/09/01 00:02:00;;;;;;;7.53;4.65;;;;;;;15.92;76.58;98093.09;4877651;29;20484;-72
2023/09/01 00:04:34;;;;;;;7.22;4.63;;;;;;;15.93;76.10;98094.75;4891221;29;20131;-72
2023/09/01 00:07:00;;;;;;;7.70;4.70;;;;;;;15.97;76.27;98090.38;4902249;29;20117;-73
2023/09/01 00:09:25;;;;;;;9.35;4.90;;;;;;;15.84;76.44;98074.72;4877871;29;20432;-71
2023/09/01 00:11:51;;;;;;;9.52;4.72;;;;;;;15.87;76.87;98087.69;4879302;29;20048;-72
2023/09/01 00:14:16;;;;;;;10.20;4.63;;;;;;;15.85;76.83;98087.19;4885442;29;20025;-73
2023/09/01 00:16:41;;;;;;;8.45;4.60;;;;;;;15.79;76.75;98077.44;4872376;29;20045;-73
2023/09/01 00:19:07;;;;;;;7.10;4.30;;;;;;;15.88;76.76;98087.44;4880289;29;20062;-70
2023/09/01 00:21:33;;;;;;;8.95;4.55;;;;;;;15.82;76.74;98072.25;4880367;29;20045;-72
2023/09/01 00:23:58;;;;;;;7.25;4.35;;;;;;;15.88;76.77;98087.44;4873979;29;20029;-72
2023/09/01 00:26:24;;;;;;;8.05;4.38;;;;;;;15.80;76.91;98085.31;4889863;29;20112;-71
2023/09/01 00:28:49;;;;;;;9.98;4.68;;;;;;;15.84;76.72;98097.25;4869041;29;20036;-70
2023/09/01 00:31:16;;;;;;;9.18;4.50;;;;;;;15.86;77.19;98105.09;4883277;29;20082;-70
2023/09/01 00:33:41;;;;;;;7.88;4.65;;;;;;;15.91;76.86;98107.81;4889309;29;20037;-70
2023/09/01 00:36:07;;;;;;;9.75;4.60;;;;;;;15.85;77.30;98098.03;4875318;29;20148;-70
2023/09/01 00:38:32;;;;;;;7.90;4.90;;;;;;;15.72;77.72;98082.38;4895849;29;20029;-72
2023/09/01 00:40:57;;;;;;;9.43;4.40;;;;;;;15.79;77.58;98091.03;4895850;29;20037;-72
2023/09/01 00:43:23;;;;;;;8.55;4.20;;;;;;;15.89;77.42;98093.69;4886510;29;20491;-72
2023/09/01 00:45:49;;;;;;;9.15;4.55;;;;;;;15.87;77.19;98093.97;4871112;29;20029;-71
2023/09/01 00:48:15;;;;;;;8.70;4.00;;;;;;;15.74;77.58;98077.47;4864285;29;20037;-72
2023/09/01 00:50:41;;;;;;;7.20;5.07;;;;;;;15.81;77.94;98097.00;4895714;29;20041;-71
2023/09/01 00:53:07;;;;;;;8.02;4.88;;;;;;;15.80;78.15;98089.91;4864381;29;20052;-72
2023/09/01 00:55:35;;;;;;;7.53;4.65;;;;;;;15.75;78.51;98098.13;4881053;29;20527;-70
2023/09/01 00:58:02;;;;;;;7.90;4.88;;;;;;;15.74;78.46;98097.28;4876847;29;20154;-71
2023/09/01 01:00:28;;;;;;;8.80;5.30;;;;;;;15.60;78.92;98079.19;4873900;29;20037;-71
2023/09/01 01:02:54;;;;;;;8.80;5.30;;;;;;;15.71;78.92;98097.84;4895022;29;20129;-70
2023/09/01 01:05:27;;;;;;;9.70;5.38;;;;;;;15.72;79.29;98087.81;4894857;29;20436;-70
2023/09/01 01:08:15;;;;;;;9.32;5.32;;;;;;;15.77;79.29;98093.22;4895226;29;20040;-70
2023/09/01 01:10:59;;;;;;;8.60;5.38;;;;;;;15.70;79.42;98092.72;4895014;29;20037;-70
2023/09/01 01:13:27;;;;;;;10.95;6.00;;;;;;;15.67;80.26;98085.94;4882638;29;20406;-71
2023/09/01 01:15:54;;;;;;;10.82;5.95;;;;;;;15.61;80.49;98091.66;4879321;29;20033;-69
2023/09/01 01:18:21;;;;;;;10.13;6.20;;;;;;;15.60;81.11;98090.03;4863927;29;20048;-69
2023/09/01 01:20:52;;;;;;;9.10;5.53;;;;;;;15.59;81.05;98083.00;4851948;29;20021;-70
2023/09/01 01:23:17;;;;;;;13.88;6.53;;;;;;;15.52;81.73;98072.41;4878481;29;20041;-69
2023/09/01 01:25:47;;;;;;;9.50;6.47;;;;;;;15.49;81.94;98083.03;4867749;29;20021;-69
2023/09/01 01:28:13;;;;;;;11.23;6.32;;;;;;;15.46;82.12;98083.59;4882043;29;20404;-70
2023/09/01 01:30:39;;;;;;;9.23;6.03;;;;;;;15.31;82.39;98072.78;4894121;29;20115;-70
2023/09/01 01:33:22;;;;;;;10.43;6.55;;;;;;;15.30;82.87;98090.97;4894529;29;20131;-70
2023/09/01 01:36:19;;;;;;;9.18;6.07;;;;;;;15.24;82.80;98087.44;4884559;29;20045;-71
2023/09/01 01:39:05;;;;;;;11.98;6.75;;;;;;;15.26;83.35;98089.06;4878972;29;20127;-72
2023/09/01 01:42:02;;;;;;;11.02;6.53;;;;;;;15.18;82.86;98071.47;4878769;29;20064;-72
2023/09/01 01:44:31;;;;;;;11.88;6.50;;;;;;;15.28;82.92;98071.44;4880423;29;20621;-70
2023/09/01 01:46:56;;;;;;;14.50;6.68;;;;;;;15.30;83.00;98076.56;4863232;29;20420;-72
2023/09/01 01:49:22;;;;;;;10.23;6.72;;;;;;;15.36;83.09;98075.44;4892439;29;20033;-70
2023/09/01 01:51:48;;;;;;;10.27;6.85;;;;;;;15.35;83.32;98077.38;4883796;29;20028;-71
2023/09/01 01:54:14;;;;;;;11.77;7.70;;;;;;;15.40;83.15;98073.81;4867353;29;20045;-71
2023/09/01 01:56:39;;;;;;;11.85;7.82;;;;;;;15.35;83.69;98071.13;4886369;29;20154;-73
2023/09/01 01:59:05;;;;;;;11.50;7.55;;;;;;;15.34;83.69;98080.34;4872624;29;20037;-74
2023/09/01 02:01:33;;;;;;;11.40;7.90;;;;;;;15.31;83.59;98070.06;4868150;29;20029;-71
2023/09/01 02:03:58;;;;;;;14.40;8.15;;;;;;;15.32;83.76;98058.94;4879819;29;20127;-71
2023/09/01 02:06:24;;;;;;;11.43;7.95;;;;;;;15.34;83.86;98064.06;4894099;29;20137;-71
2023/09/01 02:08:49;;;;;;;9.18;7.07;;;;;;;15.45;83.91;98076.56;4862892;29;20041;-72
2023/09/01 02:11:16;;;;;;;9.40;7.05;;;;;;;15.53;84.19;98074.06;4871541;29;20026;-71
2023/09/01 02:13:42;;;;;;;12.30;8.18;;;;;;;15.49;84.40;98064.03;4889249;29;20552;-71
2023/09/01 02:16:07;;;;;;;14.85;8.57;;;;;;;15.49;84.40;98077.63;4893742;29;20142;-70
2023/09/01 02:18:33;;;;;;;12.88;8.70;;;;;;;15.47;84.69;98077.09;4862723;29;20540;-70
2023/09/01 02:20:59;;;;;;;14.07;9.13;;;;;;;15.48;84.28;98074.06;4885925;29;20373;-72
2023/09/01 02:23:24;;;;;;;21.77;9.85;;;;;;;15.50;84.61;98073.78;4887719;29;20032;-70
2023/09/01 02:25:50;;;;;;;12.75;8.88;;;;;;;15.48;84.43;98070.53;4892802;29;20060;-70
2023/09/01 02:28:15;;;;;;;13.32;9.70;;;;;;;15.53;84.65;98062.38;4879450;29;20492;-73
2023/09/01 02:30:41;;;;;;;18.10;9.80;;;;;;;15.50;84.65;98073.78;4893751;29;20039;-72
2023/09/01 02:33:06;;;;;;;18.38;10.07;;;;;;;15.49;85.19;98072.19;4892058;29;20037;-72
2023/09/01 02:35:32;;;;;;;17.45;9.82;;;;;;;15.52;84.92;98066.22;4893732;29;20021;-72
2023/09/01 02:37:57;;;;;;;18.25;10.80;;;;;;;15.50;84.85;98068.34;4893885;29;20461;-72
2023/09/01 02:40:24;;;;;;;19.92;10.73;;;;;;;15.43;85.08;98067.81;4877388;29;20060;-72
2023/09/01 02:42:51;;;;;;;12.90;9.77;;;;;;;15.30;85.39;98055.69;4879508;29;20036;-71
2023/09/01 02:45:18;;;;;;;9.32;7.63;;;;;;;15.38;85.52;98065.16;4887981;29;20480;-71
2023/09/01 02:47:43;;;;;;;12.65;7.80;;;;;;;15.26;85.52;98045.66;4861358;29;20092;-71
2023/09/01 02:50:09;;;;;;;13.02;7.20;;;;;;;15.37;85.50;98063.50;4878693;29;20025;-72
2023/09/01 02:52:34;;;;;;;15.10;8.18;;;;;;;15.39;85.28;98061.34;4877348;29;20080;-71
2023/09/01 02:55:00;;;;;;;12.18;6.82;;;;;;;15.33;85.38;98057.03;4878902;29;20491;-72
2023/09/01 02:57:26;;;;;;;10.68;7.18;;;;;;;15.21;85.48;98036.47;4877526;29;20040;-70
2023/09/01 02:59:53;;;;;;;10.93;6.95;;;;;;;15.34;85.73;98053.22;4893299;29;20033;-69
2023/09/01 03:02:19;;;;;;;11.07;7.18;;;;;;;15.36;85.38;98048.31;4864638;29;20033;-70
2023/09/01 03:04:45;;;;;;;11.80;7.72;;;;;;;15.38;85.13;98051.59;4877480;29;20033;-70
2023/09/01 03:07:10;;;;;;;10.15;6.93;;;;;;;15.33;85.62;98046.19;4892937;29;20373;-71
2023/09/01 03:09:36;;;;;;;9.57;7.22;;;;;;;15.39;85.27;98050.47;4877397;29;20100;-70
2023/09/01 03:12:01;;;;;;;9.73;6.93;;;;;;;15.40;85.24;98046.69;4890781;29;20455;-69
2023/09/01 03:14:26;;;;;;;9.10;7.07;;;;;;;15.23;85.55;98037.00;4874422;29;20408;-72
2023/09/01 03:16:52;;;;;;;9.85;7.00;;;;;;;15.17;85.02;98019.09;4873110;29;20512;-69
2023/09/01 03:19:18;;;;;;;10.18;6.80;;;;;;;15.27;85.63;98031.81;4869289;29;20033;-69
2023/09/01 03:21:43;;;;;;;9.88;6.13;;;;;;;15.34;85.33;98036.94;4888454;29;20057;-70
2023/09/01 03:24:09;;;;;;;10.70;7.90;;;;;;;15.14;85.77;98019.69;4868810;29;20456;-71
2023/09/01 03:26:35;;;;;;;12.20;8.20;;;;;;;15.26;85.62;98038.34;4886817;29;20043;-70
2023/09/01 03:29:02;;;;;;;13.48;7.78;;;;;;;15.28;85.91;98029.91;4882218;29;20029;-68
2023/09/01 03:31:28;;;;;;;11.07;7.75;;;;;;;15.30;85.53;98031.25;4862421;29;20073;-68
2023/09/01 03:33:59;;;;;;;12.82;8.70;;;;;;;15.28;85.59;98040.75;4881971;29;20049;-69
2023/09/01 03:36:24;;;;;;;11.30;8.60;;;;;;;15.24;85.65;98025.03;4861295;29;20040;-68
2023/09/01 03:38:49;;;;;;;12.05;8.98;;;;;;;15.35;85.43;98035.84;4873555;29;20030;-69
2023/09/01 03:41:15;;;;;;;13.20;8.52;;;;;;;15.36;85.25;98034.75;4872568;29;20037;-69
2023/09/01 03:43:40;;;;;;;11.85;8.25;;;;;;;15.37;85.66;98037.19;4861118;29;20460;-68
2023/09/01 03:46:06;;;;;;;10.25;8.20;;;;;;;15.42;85.65;98033.66;4876705;29;20033;-70
2023/09/01 03:48:31;;;;;;;8.90;7.30;;;;;;;15.44;85.59;98034.19;4877981;29;20460;-69
2023/09/01 03:51:10;;;;;;;11.15;7.70;;;;;;;15.46;85.62;98030.13;4877778;29;20128;-72
2023/09/01 03:53:37;;;;;;;9.75;7.55;;;;;;;15.44;85.61;98015.19;4877041;29;20037;-73
2023/09/01 03:56:12;;;;;;;7.60;6.43;;;;;;;15.50;85.45;98019.50;4876734;29;20457;-72
2023/09/01 03:58:38;;;;;;;9.10;5.97;;;;;;;15.57;85.71;98025.44;4892283;29;20407;-72
2023/09/01 04:01:11;;;;;;;8.18;7.10;;;;;;;15.59;85.63;98034.13;4873622;29;20033;-72
2023/09/01 04:03:38;;;;;;;9.27;6.95;;;;;;;15.52;85.36;98017.34;4855993;29;20065;-73
2023/09/01 04:06:05;;;;;;;7.97;6.32;;;;;;;15.56;85.37;98021.94;4877175;29;20081;-72
2023/09/01 04:08:30;;;;;;;7.93;5.68;;;;;;;15.55;85.31;98012.16;4861893;29;20040;-72
2023/09/01 04:10:56;;;;;;;7.25;6.07;;;;;;;15.57;85.01;98001.00;4873992;29;20408;-72
2023/09/01 04:13:21;;;;;;;8.10;5.65;;;;;;;15.57;85.01;97999.09;4885916;29;20554;-73
2023/09/01 04:15:47;;;;;;;10.18;6.82;;;;;;;15.59;84.99;98009.72;4893218;29;20503;-72
2023/09/01 04:18:12;;;;;;;8.48;6.28;;;;;;;15.63;85.02;98014.28;4876889;29;20053;-72
2023/09/01 04:20:38;;;;;;;7.53;6.35;;;;;;;15.70;85.00;98016.69;4894015;29;20029;-72
2023/09/01 04:23:03;;;;;;;9.50;7.05;;;;;;;15.62;84.86;98006.41;4894598;29;20028;-71
2023/09/01 04:25:29;;;;;;;7.05;6.07;;;;;;;15.72;84.85;98017.22;4875629;29;20029;-71
2023/09/01 04:27:54;;;;;;;7.55;5.45;;;;;;;15.74;84.85;98009.59;4872154;29;20045;-72
2023/09/01 04:30:21;;;;;;;8.80;5.88;;;;;;;15.74;84.78;98009.59;4874052;29;20025;-71
2023/09/01 04:32:47;;;;;;;7.10;6.13;;;;;;;15.73;85.01;98018.81;4869860;29;20089;-70
2023/09/01 04:35:12;;;;;;;7.30;6.50;;;;;;;15.73;85.03;98018.81;4872597;29;20411;-69
2023/09/01 04:37:38;;;;;;;8.00;6.05;;;;;;;15.74;84.91;98015.03;4868624;29;20040;-71
2023/09/01 04:40:06;;;;;;;8.57;6.15;;;;;;;15.66;84.75;98007.50;4872902;29;20025;-71
2023/09/01 04:42:32;;;;;;;11.75;7.47;;;;;;;15.76;84.87;98026.41;4868871;29;20057;-72
2023/09/01 04:44:57;;;;;;;9.38;7.10;;;;;;;15.67;85.35;98019.97;4885216;29;20080;-71
2023/09/01 04:47:24;;;;;;;11.65;7.43;;;;;;;15.47;85.08;97992.94;4884567;29;20465;-71
2023/09/01 04:49:49;;;;;;;10.82;7.80;;;;;;;15.60;85.32;98019.47;4875466;29;20028;-71
2023/09/01 04:52:15;;;;;;;13.23;8.95;;;;;;;15.62;85.11;98025.41;4860274;29;20424;-71
2023/09/01 04:54:41;;;;;;;10.63;7.65;;;;;;;15.65;85.07;98038.44;4874204;29;20089;-72
2023/09/01 04:57:06;;;;;;;11.48;8.85;;;;;;;15.67;85.19;98036.25;4889719;29;20056;-72
2023/09/01 04:59:32;;;;;;;11.57;8.00;;;;;;;15.61;85.26;98015.66;4874447;29;20028;-72
2023/09/01 05:02:00;;;;;;;13.63;8.75;;;;;;;15.64;85.13;98010.47;4873879;29;20503;-70
2023/09/01 05:04:26;;;;;;;10.57;8.68;;;;;;;15.70;85.61;98030.25;4877212;29;20381;-70
2023/09/01 05:06:51;;;;;;;14.65;9.23;;;;;;;15.60;85.90;98019.47;4869027;29;20032;-70
2023/09/01 05:09:17;;;;;;;10.18;8.52;;;;;;;15.63;85.76;98030.56;4877816;29;20025;-72
2023/09/01 05:11:42;;;;;;;10.25;8.32;;;;;;;15.50;85.79;98014.06;4877853;29;20037;-73
2023/09/01 05:14:08;;;;;;;10.45;8.10;;;;;;;15.48;86.04;98013.56;4875782;29;20025;-73
2023/09/01 05:16:33;;;;;;;10.88;7.75;;;;;;;15.60;86.35;98035.75;4887239;29;20431;-73
2023/09/01 05:18:58;;;;;;;12.25;8.95;;;;;;;15.49;86.34;98016.00;4878866;29;20029;-73
2023/09/01 05:21:24;;;;;;;13.88;8.40;;;;;;;15.56;86.51;98042.84;4894172;29;20048;-70
2023/09/01 05:23:49;;;;;;;11.00;8.27;;;;;;;15.60;86.81;98041.16;4878759;29;20030;-72
2023/09/01 05:26:15;;;;;;;12.00;8.80;;;;;;;15.61;86.79;98037.38;4894362;29;20119;-72
2023/09/01 05:28:40;;;;;;;12.05;9.27;;;;;;;15.67;86.72;98036.25;4875473;29;20420;-72
2023/09/01 05:31:06;;;;;;;9.75;8.25;;;;;;;15.58;86.91;98016.22;4886607;29;20093;-72
2023/09/01 05:33:35;;;;;;;9.45;8.20;;;;;;;15.69;87.08;98042.19;4893810;29;20048;-73
2023/09/01 05:36:01;;;;;;;11.77;9.38;;;;;;;15.62;86.76;98028.13;4878700;29;20065;-72
2023/09/01 05:38:26;;;;;;;8.00;7.18;;;;;;;15.62;87.02;98039.81;4878698;29;20029;-71
2023/09/01 05:40:59;;;;;;;10.52;7.57;;;;;;;15.56;87.08;98023.81;4894219;29;20590;-72
2023/09/01 05:43:25;;;;;;;9.60;7.53;;;;;;;15.65;87.31;98033.81;4878709;29;20033;-72
2023/09/01 05:45:51;;;;;;;10.13;8.35;;;;;;;15.76;87.13;98045.41;4894030;29;20085;-72
2023/09/01 05:48:17;;;;;;;13.05;9.35;;;;;;;15.75;87.44;98047.31;4894011;29;20041;-72
2023/09/01 05:50:43;;;;;;;9.65;8.30;;;;;;;15.73;87.75;98037.81;4878376;29;20021;-72
2023/09/01 05:53:10;;;;;;;9.65;8.40;;;;;;;15.77;87.63;98038.91;4878247;29;20119;-72
2023/09/01 05:55:36;;;;;;;12.13;10.20;;;;;;;15.63;87.85;98019.72;4878340;29;20560;-73
2023/09/01 05:58:01;;;;;;;12.55;9.98;;;;;;;15.79;87.75;98044.88;4894150;29;20041;-72
2023/09/01 06:00:27;;;;;;;13.63;10.27;;;;;;;15.82;87.94;98039.66;4892373;29;20116;-72
2023/09/01 06:02:52;;;;;;;16.05;11.07;;;;;;;15.82;87.60;98045.09;4891934;29;20445;-72
2023/09/01 06:05:18;;;;;;;13.07;10.80;;;;;;;15.93;87.75;98045.84;4876516;29;20056;-72
2023/09/01 06:07:43;;;;;;;15.93;12.07;;;;;;;15.74;88.13;98034.84;4892182;29;20048;-72
2023/09/01 06:10:09;;;;;;;14.65;11.70;;;;;;;15.90;87.85;98054.56;4878738;29;20035;-71
2023/09/01 06:12:34;;;;;;;15.27;11.82;;;;;;;15.72;88.38;98033.50;4879146;29;20516;-73
2023/09/01 06:15:00;;;;;;;15.02;10.82;;;;;;;15.80;88.35;98049.19;4878047;29;20036;-73
2023/09/01 06:17:25;;;;;;;13.52;10.63;;;;;;;15.89;88.39;98055.66;4866992;29;20052;-74
2023/09/01 06:19:50;;;;;;;15.85;11.20;;;;;;;15.85;88.42;98044.53;4884597;29;20048;-72
2023/09/01 06:22:16;;;;;;;12.85;10.15;;;;;;;16.00;88.41;98051.78;4878934;29;20041;-73
2023/09/01 06:24:41;;;;;;;13.05;11.50;;;;;;;15.83;88.28;98024.19;4893545;29;20112;-71
2023/09/01 06:27:07;;;;;;;16.45;11.85;;;;;;;15.95;88.27;98037.41;4879144;29;20040;-72
2023/09/01 06:29:32;;;;;;;13.43;10.48;;;;;;;16.02;88.58;98041.44;4893207;29;20028;-73
2023/09/01 06:31:57;;;;;;;11.88;9.38;;;;;;;16.06;88.63;98049.81;4878674;29;20044;-71
2023/09/01 06:34:23;;;;;;;11.75;10.50;;;;;;;16.05;88.28;98054.47;4892008;29;20039;-72
2023/09/01 06:36:48;;;;;;;11.45;10.05;;;;;;;16.16;88.44;98063.34;4877277;29;20124;-72
2023/09/01 06:39:16;;;;;;;12.68;10.57;;;;;;;16.13;88.32;98047.59;4891107;29;20056;-70
2023/09/01 06:41:42;;;;;;;10.60;9.05;;;;;;;16.00;88.72;98030.06;4877452;29;20056;-72
2023/09/01 06:44:08;;;;;;;11.70;10.48;;;;;;;16.10;88.66;98029.97;4878601;29;20041;-71
2023/09/01 06:46:33;;;;;;;10.77;9.35;;;;;;;16.18;88.17;98032.06;4862066;29;20070;-72
2023/09/01 06:48:59;;;;;;;10.07;8.77;;;;;;;16.34;87.95;98052.59;4874507;29;20041;-72
2023/09/01 06:51:24;;;;;;;10.93;9.70;;;;;;;16.43;87.64;98061.75;4876240;29;20033;-71
2023/09/01 06:53:49;;;;;;;9.50;8.52;;;;;;;16.42;87.84;98065.59;4878409;29;20341;-73
2023/09/01 06:56:15;;;;;;;9.77;8.07;;;;;;;16.31;88.08;98055.88;4892861;29;20045;-72
2023/09/01 06:58:40;;;;;;;10.32;9.10;;;;;;;16.48;87.76;98067.16;4892957;29;20555;-72
2023/09/01 07:01:10;;;;;;;7.70;6.95;;;;;;;16.56;87.58;98072.00;4877870;29;20029;-72
2023/09/01 07:03:35;;;;;;;9.00;7.70;;;;;;;16.65;87.81;98065.94;4892731;29;20468;-73
2023/09/01 07:06:00;;;;;;;10.20;8.98;;;;;;;16.71;87.51;98068.31;4892867;29;20037;-72
2023/09/01 07:08:28;;;;;;;9.93;8.63;;;;;;;16.64;87.55;98062.41;4874103;29;20399;-74
2023/09/01 07:10:53;;;;;;;8.88;7.97;;;;;;;16.71;87.66;98067.53;4875970;29;20040;-74
2023/09/01 07:13:18;;;;;;;8.18;7.43;;;;;;;16.71;87.10;98052.00;4873696;29;20030;-73
2023/09/01 07:15:49;;;;;;;8.73;7.07;;;;;;;16.82;87.09;98069.03;4891769;29;20182;-75
2023/09/01 07:18:14;;;;;;;7.63;6.93;;;;;;;16.75;87.14;98063.13;4880509;29;20036;-75
2023/09/01 07:20:39;;;;;;;7.57;6.88;;;;;;;16.78;87.08;98059.84;4877230;29;20035;-72
2023/09/01 07:23:05;;;;;;;9.55;8.10;;;;;;;16.85;87.14;98071.19;4877893;29;20407;-73
2023/09/01 07:25:31;;;;;;;7.38;6.68;;;;;;;16.76;87.25;98070.19;4892196;29;20037;-74
2023/09/01 07:27:56;;;;;;;7.93;7.13;;;;;;;16.92;87.13;98074.41;4892205;29;20045;-74
2023/09/01 07:30:21;;;;;;;9.18;6.40;;;;;;;16.78;86.89;98063.34;4877954;29;20105;-72
2023/09/01 07:32:47;;;;;;;6.70;6.05;;;;;;;17.03;86.90;98075.91;4877639;29;20044;-74
2023/09/01 07:35:12;;;;;;;7.20;6.50;;;;;;;17.15;86.93;98073.59;4891264;29;20028;-74
2023/09/01 07:37:37;;;;;;;7.28;6.57;;;;;;;17.23;86.98;98075.66;4876687;29;20463;-75
2023/09/01 07:40:04;;;;;;;6.65;6.05;;;;;;;17.22;86.71;98063.97;4877243;29;20027;-75
2023/09/01 07:42:30;;;;;;;6.72;6.03;;;;;;;17.18;86.70;98062.09;4890165;29;20705;-74
2023/09/01 07:44:55;;;;;;;6.75;6.15;;;;;;;17.30;86.41;98081.56;4903072;29;20476;-73
2023/09/01 07:47:21;;;;;;;6.53;5.90;;;;;;;17.37;86.03;98076.59;4876501;29;20047;-75
2023/09/01 07:49:46;;;;;;;7.65;5.70;;;;;;;17.16;86.55;98054.25;4877348;29;20033;-72
2023/09/01 07:52:12;;;;;;;5.45;4.88;;;;;;;17.28;86.35;98062.00;4877434;29;20041;-71
2023/09/01 07:54:37;;;;;;;5.22;4.70;;;;;;;17.19;86.17;98058.28;4891674;29;20029;-72
2023/09/01 07:57:02;;;;;;;5.47;4.85;;;;;;;17.31;86.10;98077.75;4891773;29;20041;-72
2023/09/01 07:59:28;;;;;;;5.78;5.15;;;;;;;17.36;85.96;98080.41;4877505;29;20088;-72
2023/09/01 08:01:53;;;;;;;5.32;4.82;;;;;;;17.42;85.99;98081.97;4891714;29;20048;-72
2023/09/01 08:04:19;;;;;;;5.82;4.63;;;;;;;17.32;85.75;98063.03;4876212;29;20090;-75
2023/09/01 08:06:45;;;;;;;6.13;4.60;;;;;;;17.49;86.05;98093.31;4900182;29;20045;-74
2023/09/01 08:09:10;;;;;;;5.38;4.50;;;;;;;17.45;85.87;98077.84;4877316;29;20040;-71
2023/09/01 08:11:35;;;;;;;5.47;4.70;;;;;;;17.37;86.15;98071.13;4891343;29;20048;-72
2023/09/01 08:14:01;;;;;;;4.90;4.50;;;;;;;17.61;85.90;98099.19;4891718;29;20468;-75
2023/09/01 08:16:26;;;;;;;4.60;4.20;;;;;;;17.55;85.83;98073.09;4891606;29;20052;-74
2023/09/01 08:18:51;;;;;;;4.30;3.97;;;;;;;17.85;85.21;98099.94;4882897;29;20044;-75
2023/09/01 08:21:17;;;;;;;4.93;4.43;;;;;;;17.94;85.70;98111.84;4891412;29;20037;-74
2023/09/01 08:23:42;;;;;;;5.75;4.43;;;;;;;18.03;85.17;98116.59;4877179;29;20097;-73
2023/09/01 08:26:08;;;;;;;7.60;4.25;;;;;;;17.91;85.07;98106.16;4891575;29;20072;-74
2023/09/01 08:28:33;;;;;;;4.47;4.07;;;;;;;17.84;85.36;98101.06;4891691;29;20089;-74
2023/09/01 08:31:03;;;;;;;4.28;3.90;;;;;;;17.79;85.50;98106.56;4890755;29;20056;-73
2023/09/01 08:33:28;;;;;;;4.18;3.78;;;;;;;17.76;85.24;98107.16;4872717;29;20029;-74
2023/09/01 08:35:53;;;;;;;4.75;3.70;;;;;;;17.84;85.65;98127.50;4868691;29;20037;-74
2023/09/01 08:38:19;;;;;;;4.68;4.25;;;;;;;17.67;85.34;98089.84;4878789;29;20025;-74
2023/09/01 08:40:44;;;;;;;4.35;3.63;;;;;;;17.68;86.37;98126.06;4895343;29;20111;-73
2023/09/01 08:43:10;;;;;;;4.35;3.45;;;;;;;17.61;86.00;98126.44;4879309;29;20033;-75
2023/09/01 08:45:36;;;;;;;4.45;3.88;;;;;;;17.56;86.22;98101.97;4895326;29;20444;-74
2023/09/01 08:48:03;;;;;;;4.75;4.30;;;;;;;17.78;85.97;98132.19;4895278;29;20420;-75
2023/09/01 08:50:28;;;;;;;5.72;4.80;;;;;;;17.66;86.44;98118.19;4884315;29;20107;-72
2023/09/01 08:52:55;;;;;;;5.53;4.78;;;;;;;17.76;86.71;98137.13;4888773;29;20428;-73
2023/09/01 08:55:20;;;;;;;4.97;4.10;;;;;;;17.65;87.29;98123.91;4887020;29;20044;-72
2023/09/01 08:57:50;;;;;;;4.45;4.05;;;;;;;17.59;87.09;98111.47;4882478;29;20029;-72
2023/09/01 09:00:16;;;;;;;4.47;3.90;;;;;;;17.70;87.33;98124.69;4868390;29;20070;-75
2023/09/01 09:02:42;;;;;;;3.88;3.45;;;;;;;17.80;87.01;98124.56;4888502;29;20045;-77
2023/09/01 09:05:13;;;;;;;4.30;3.90;;;;;;;17.95;86.69;98131.69;4887603;29;20530;-73
2023/09/01 09:07:39;;;;;;;4.05;3.33;;;;;;;17.98;86.79;98125.66;4882300;29;20547;-72
2023/09/01 09:10:05;;;;;;;4.63;3.17;;;;;;;18.12;86.76;98128.47;4883303;29;20029;-73
2023/09/01 09:12:41;;;;;;;3.90;3.47;;;;;;;18.20;86.08;98128.63;4888329;29;20408;-73
2023/09/01 09:15:07;;;;;;;5.85;3.60;;;;;;;18.11;86.01;98119.47;4888579;29;20033;-72
2023/09/01 09:17:44;;;;;;;4.05;3.75;;;;;;;18.25;85.91;98122.28;4883238;29;20029;-72
2023/09/01 09:20:15;;;;;;;4.10;3.80;;;;;;;18.20;85.92;98122.38;4892438;29;20040;-74
2023/09/01 09:22:53;;;;;;;4.45;4.03;;;;;;;18.29;85.44;98129.59;4884875;29;20115;-73
2023/09/01 09:25:26;;;;;;;4.50;4.10;;;;;;;18.19;85.79;98126.19;4875774;29;20045;-74
2023/09/01 09:27:52;;;;;;;4.30;3.90;;;;;;;18.19;85.83;98126.19;4871913;29;20043;-72
2023/09/01 09:30:17;;;;;;;4.78;4.38;;;;;;;18.27;85.77;98122.81;4861056;29;20029;-73
2023/09/01 09:32:43;;;;;;;6.13;5.50;;;;;;;18.22;85.91;98111.97;4887242;29;20045;-72
2023/09/01 09:35:10;;;;;;;5.20;4.70;;;;;;;18.31;85.91;98129.28;4889031;29;20081;-74
2023/09/01 09:37:37;;;;;;;4.80;4.32;;;;;;;18.32;86.10;98130.91;4886746;29;20049;-73
2023/09/01 09:40:16;;;;;;;5.85;4.90;;;;;;;18.30;85.88;98111.28;4860936;29;20496;-74
2023/09/01 09:42:46;;;;;;;4.70;4.30;;;;;;;18.20;85.97;98106.00;4888067;29;20041;-72
2023/09/01 09:45:28;;;;;;;6.15;4.70;;;;;;;18.35;85.42;98133.03;4868201;29;20116;-73
2023/09/01 09:47:58;;;;;;;5.10;4.68;;;;;;;18.34;86.28;98131.41;4879937;29;20037;-75
2023/09/01 09:50:26;;;;;;;5.30;4.82;;;;;;;18.21;86.33;98118.50;4882547;29;20469;-73
2023/09/01 09:53:00;;;;;;;5.47;4.97;;;;;;;18.24;86.09;98123.38;4872242;29;20100;-73
2023/09/01 09:55:30;;;;;;;5.68;5.18;;;;;;;18.18;86.45;98130.03;4886337;29;20108;-73
2023/09/01 09:58:04;;;;;;;5.28;4.78;;;;;;;18.14;86.18;98135.25;4881571;29;20057;-72
2023/09/01 10:00:32;;;;;;;5.63;4.95;;;;;;;18.27;86.42;98144.63;4865868;29;20041;-72
2023/09/01 10:03:01;;;;;;;6.40;5.03;;;;;;;18.23;86.49;98138.94;4871416;29;20078;-73
2023/09/01 10:05:30;;;;;;;6.03;5.43;;;;;;;18.29;86.88;98136.94;4887486;29;20395;-73
2023/09/01 10:07:57;;;;;;;6.07;5.13;;;;;;;18.31;87.01;98134.72;4859880;29;20511;-73
2023/09/01 10:10:23;;;;;;;7.53;5.57;;;;;;;18.25;86.89;98127.75;4875268;29;20109;-72
2023/09/01 10:12:50;;;;;;;6.40;5.80;;;;;;;18.39;86.88;98147.72;4882951;29;20467;-73
2023/09/01 10:15:17;;;;;;;5.72;5.30;;;;;;;18.47;86.36;98130.69;4880086;29;20045;-74
2023/09/01 10:17:43;;;;;;;5.97;5.38;;;;;;;18.85;86.62;98137.72;4889411;29;20120;-72
2023/09/01 10:20:09;;;;;;;6.00;5.43;;;;;;;19.05;85.75;98133.78;4894095;29;20111;-72
2023/09/01 10:22:38;;;;;;;6.30;5.10;;;;;;;19.18;85.71;98136.53;4883922;29;20045;-73
2023/09/01 10:25:10;;;;;;;5.78;5.28;;;;;;;19.26;85.45;98138.59;4886023;29;20041;-72
2023/09/01 10:27:36;;;;;;;5.40;4.97;;;;;;;19.35;85.31;98122.31;4868193;29;20689;-74
2023/09/01 10:30:18;;;;;;;5.60;5.10;;;;;;;19.46;85.08;98129.25;4879390;29;20021;-73
2023/09/01 10:32:43;;;;;;;6.35;5.18;;;;;;;19.58;84.82;98131.47;4887295;29;20037;-72
2023/09/01 10:35:09;;;;;;;5.78;5.18;;;;;;;19.76;84.64;98133.28;4877609;29;20531;-72
2023/09/01 10:37:34;;;;;;;5.28;4.78;;;;;;;19.77;84.07;98122.03;4868089;29;20053;-73
2023/09/01 10:40:00;;;;;;;5.10;4.60;;;;;;;19.73;83.71;98117.47;4887392;29;20041;-72
2023/09/01 10:42:55;;;;;;;5.15;4.28;;;;;;;19.99;83.02;98124.03;4870435;29;20068;-73
2023/09/01 10:45:22;;;;;;;4.68;4.28;;;;;;;20.20;83.10;98127.94;4859456;29;20508;-71
2023/09/01 10:47:51;;;;;;;4.40;4.00;;;;;;;20.36;82.18;98126.50;4876636;29;20049;-73
2023/09/01 10:50:17;;;;;;;4.20;3.90;;;;;;;20.35;81.98;98130.31;4878492;29;20036;-72
2023/09/01 10:52:44;;;;;;;4.03;3.72;;;;;;;20.23;81.79;98116.41;4866148;29;20468;-73
2023/09/01 10:55:10;;;;;;;5.10;4.07;;;;;;;20.35;81.81;98130.31;4893000;29;20053;-73
2023/09/01 10:57:43;;;;;;;4.97;3.90;;;;;;;20.30;81.54;98127.75;4878597;29;20127;-75
2023/09/01 11:00:32;;;;;;;5.35;3.60;;;;;;;20.41;81.05;98128.28;4882803;29;20124;-73
2023/09/01 11:03:27;;;;;;;4.10;3.70;;;;;;;20.39;81.09;98136.81;4863699;29;20095;-72
2023/09/01 11:05:57;;;;;;;3.65;3.35;;;;;;;20.22;81.94;98114.78;4888392;29;20053;-72
2023/09/01 11:08:24;;;;;;;4.32;3.72;;;;;;;20.23;81.59;98112.88;4884921;29;20037;-72
2023/09/01 11:10:50;;;;;;;3.50;3.10;;;;;;;20.38;81.82;98124.25;4887721;29;20476;-72
2023/09/01 11:13:17;;;;;;;4.13;3.45;;;;;;;20.43;82.13;98132.34;4884615;29;20067;-72
2023/09/01 11:15:46;;;;;;;3.92;3.47;;;;;;;20.27;82.34;98128.34;4864749;29;20112;-71
2023/09/01 11:18:38;;;;;;;3.63;3.28;;;;;;;20.19;82.17;98137.22;4877229;29;20043;-73
2023/09/01 11:21:07;;;;;;;3.60;3.30;;;;;;;19.86;83.23;98105.72;4883731;29;20045;-73
2023/09/01 11:23:33;;;;;;;4.07;3.70;;;;;;;20.00;83.30;98144.75;4880228;29;20120;-72
2023/09/01 11:25:59;;;;;;;4.80;3.55;;;;;;;20.02;83.28;98130.81;4884152;29;20173;-72
2023/09/01 11:28:28;;;;;;;3.85;3.55;;;;;;;20.02;83.04;98119.88;4886244;29;20037;-73
2023/09/01 11:31:03;;;;;;;4.80;3.80;;;;;;;20.12;83.31;98133.31;4868741;29;20534;-73